DW2217 Weather Reports


Display with metric or nautical units.
time (UTC)temp
F
wind
direction
speed
MPH
gust
MPH
rain 1hr
in
rain 24hr
in
rain mn
in
humidity
%
barometer
mb
20221204224230 29 298 0.0 0.0 0.00 0.00 0.00 52 1021.8
20221204223729 30 298 0.0 0.0 0.00 0.00 0.00 51 1021.8
20221204223229 30 298 0.0 0.0 0.00 0.00 0.00 50 1021.8
20221204222728 30 298 0.0 0.0 0.00 0.00 0.00 50 1021.7
20221204222225 30 298 0.0 0.0 0.00 0.00 0.00 50 1021.6
20221204221723 30 298 0.0 0.0 0.00 0.00 0.00 49 1021.7
20221204221221 30 298 1.0 2.0 0.00 0.00 0.00 45 1021.6
20221204220655 30 298 2.0 2.0 0.00 0.00 0.00 45 1021.7
20221204220155 30 298 1.0 2.0 0.00 0.00 0.00 47 1021.4
20221204215653 30 298 2.0 3.0 0.00 0.00 0.00 49 1021.4
20221204215153 30 298 2.0 3.0 0.00 0.00 0.00 46 1021.2
20221204214653 30 298 2.0 3.0 0.00 0.00 0.00 48 1021.4
20221204214152 30 298 2.0 3.0 0.00 0.00 0.00 46 1021.0
20221204213651 31 298 3.0 3.0 0.00 0.00 0.00 45 1020.9
20221204213149 31 298 3.0 5.0 0.00 0.00 0.00 44 1020.7
20221204212648 31 298 2.0 3.0 0.00 0.00 0.00 45 1020.6
20221204212146 31 298 2.0 3.0 0.00 0.00 0.00 43 1020.3
20221204211644 31 298 2.0 2.0 0.00 0.00 0.00 50 1020.3
20221204211142 31 298 2.0 2.0 0.00 0.00 0.00 45 1020.0
20221204210641 31 298 2.0 2.0 0.00 0.00 0.00 45 1020.1
20221204210140 31 298 1.0 2.0 0.00 0.00 0.00 44 1020.0
20221204205639 32 298 1.0 2.0 0.00 0.00 0.00 43 1020.0
20221204205137 32 299 2.0 3.0 0.00 0.00 0.00 42 1020.1
20221204204637 32 304 3.0 5.0 0.00 0.00 0.00 42 1020.1
20221204204136 32 286 4.0 5.0 0.00 0.00 0.00 42 1020.0
20221204203634 32 287 4.0 7.0 0.00 0.00 0.00 41 1020.0
20221204203132 32 279 6.0 9.0 0.00 0.00 0.00 40 1019.9
20221204202631 32 289 5.0 7.0 0.00 0.00 0.00 42 1019.9
20221204202128 32 285 4.0 5.0 0.00 0.00 0.00 43 1019.8
20221204201628 32 296 2.0 5.0 0.00 0.00 0.00 42 1019.6
20221204201127 33 299 5.0 5.0 0.00 0.00 0.00 41 1019.7
20221204200622 33 278 8.0 12.0 0.00 0.00 0.00 39 1019.8
20221204200122 33 302 3.0 7.0 0.00 0.00 0.00 41 1020.0
20221204195622 33 276 5.0 12.0 0.00 0.00 0.00 39 1019.9
20221204195119 33 300 8.0 12.0 0.00 0.00 0.00 38 1020.1
20221204194618 34 302 6.0 14.0 0.00 0.00 0.00 38 1020.0
20221204194116 34 318 8.0 10.0 0.00 0.00 0.00 36 1020.0
20221204193615 34 297 7.0 14.0 0.00 0.00 0.00 37 1019.9
20221204193114 34 314 6.0 10.0 0.00 0.00 0.00 37 1020.3
20221204192612 34 283 3.0 10.0 0.00 0.00 0.00 37 1020.4
20221204192111 34 283 5.0 9.0 0.00 0.00 0.00 36 1020.4
20221204191610 34 288 3.0 7.0 0.00 0.00 0.00 37 1020.4
20221204191109 34 265 7.0 9.0 0.00 0.00 0.00 38 1020.4
20221204190607 34 275 11.0 14.0 0.00 0.00 0.00 37 1020.4
20221204190105 35 285 5.0 9.0 0.00 0.00 0.00 37 1020.3
20221204185605 34 283 5.0 7.0 0.00 0.00 0.00 38 1020.3
20221204185104 35 291 9.0 12.0 0.00 0.00 0.00 38 1020.3
20221204184603 35 276 7.0 14.0 0.00 0.00 0.00 39 1020.1
20221204184103 35 263 7.0 9.0 0.00 0.00 0.00 40 1019.9
20221204183602 35 267 5.0 9.0 0.00 0.00 0.00 38 1020.1
20221204183102 35 279 8.0 12.0 0.00 0.00 0.00 38 1019.8
20221204182601 35 273 7.0 9.0 0.00 0.00 0.00 38 1019.9
20221204182101 35 278 6.0 9.0 0.00 0.00 0.00 39 1019.7
20221204181601 35 282 5.0 7.0 0.00 0.00 0.00 39 1019.7
20221204181100 35 274 5.0 7.0 0.00 0.00 0.00 42 1019.6
20221204180558 35 261 4.0 7.0 0.00 0.00 0.00 45 1019.4
20221204180057 35 282 4.0 9.0 0.00 0.00 0.00 39 1019.3
20221204175557 35 256 4.0 7.0 0.00 0.00 0.00 44 1019.2
20221204175055 35 283 6.0 7.0 0.00 0.00 0.00 44 1019.2
20221204174555 34 269 6.0 7.0 0.00 0.00 0.00 41 1019.3
20221204174055 34 268 6.0 10.0 0.00 0.00 0.00 38 1019.3
20221204173555 35 272 7.0 10.0 0.00 0.00 0.00 38 1019.5
20221204173055 35 272 4.0 7.0 0.00 0.00 0.00 40 1019.2
20221204172553 34 279 7.0 10.0 0.00 0.00 0.00 40 1019.3
20221204172053 35 264 6.0 7.0 0.00 0.00 0.00 42 1019.1
20221204171552 35 269 6.0 9.0 0.00 0.00 0.00 43 1019.4
20221204171051 35 282 4.0 7.0 0.00 0.00 0.00 43 1019.2
20221204170551 34 260 5.0 12.0 0.00 0.00 0.00 39 1019.3
20221204170050 34 266 8.0 10.0 0.00 0.00 0.00 40 1019.5
20221204165550 34 278 10.0 12.0 0.00 0.00 0.00 39 1019.4
20221204165046 34 280 3.0 7.0 0.00 0.00 0.00 40 1019.5
20221204164546 35 302 6.0 9.0 0.00 0.00 0.00 41 1019.5
20221204164044 34 277 4.0 10.0 0.00 0.00 0.00 43 1019.4
20221204163542 34 274 6.0 7.0 0.00 0.00 0.00 42 1019.5
20221204163041 34 275 7.0 9.0 0.00 0.00 0.00 41 1019.7
20221204162540 34 313 6.0 7.0 0.00 0.00 0.00 44 1019.6
20221204162039 34 262 5.0 12.0 0.00 0.00 0.00 45 1019.7
20221204161539 34 258 4.0 12.0 0.00 0.00 0.00 42 1019.6
20221204161037 34 285 3.0 9.0 0.00 0.00 0.00 42 1019.5
20221204160537 34 270 3.0 12.0 0.00 0.00 0.00 42 1019.5
20221204160036 34 278 8.0 10.0 0.00 0.00 0.00 41 1019.5
20221204155535 34 263 7.0 10.0 0.00 0.00 0.00 42 1019.3
20221204155034 33 317 13.0 15.0 0.00 0.00 0.00 42 1019.5
20221204154534 33 277 11.0 15.0 0.00 0.00 0.00 42 1019.7
20221204154033 34 299 7.0 15.0 0.00 0.00 0.00 43 1019.8
20221204153531 34 288 7.0 9.0 0.00 0.00 0.00 43 1020.0
20221204153030 33 286 11.0 14.0 0.00 0.00 0.00 42 1019.9
20221204152530 33 282 8.0 10.0 0.00 0.00 0.00 47 1020.0
20221204152029 33 273 7.0 10.0 0.00 0.00 0.00 45 1020.1
20221204151529 34 261 7.0 12.0 0.00 0.00 0.00 43 1020.2
20221204151029 34 272 7.0 10.0 0.00 0.00 0.00 46 1020.0
20221204150528 34 288 8.0 9.0 0.00 0.00 0.00 44 1020.1
20221204150026 34 270 7.0 10.0 0.00 0.00 0.00 47 1020.2
20221204145525 35 279 6.0 10.0 0.00 0.00 0.00 45 1020.3
20221204145024 35 318 1.0 9.0 0.00 0.00 0.00 46 1020.3
20221204144524 34 292 2.0 3.0 0.00 0.00 0.00 47 1020.4
20221204144023 34 290 3.0 5.0 0.00 0.00 0.00 47 1020.3
20221204143521 34 286 3.0 5.0 0.00 0.00 0.00 50 1020.2
20221204143019 34 289 4.0 5.0 0.00 0.00 0.00 47 1020.2
20221204142518 34 301 3.0 3.0 0.00 0.00 0.00 46 1020.1
20221204142017 34 298 2.0 3.0 0.00 0.00 0.00 46 1020.3
20221204141515 34 285 3.0 3.0 0.00 0.00 0.00 51 1020.2
20221204141014 34 285 2.0 7.0 0.00 0.00 0.00 47 1020.1
20221204140511 33 318 3.0 3.0 0.00 0.00 0.00 47 1020.2
20221204140011 33 318 0.0 3.0 0.00 0.00 0.00 49 1020.3
20221204135510 33 319 2.0 5.0 0.00 0.00 0.00 47 1020.1
20221204135010 33 318 3.0 5.0 0.00 0.00 0.00 48 1019.9
20221204134509 33 31 3.0 7.0 0.00 0.00 0.00 49 1019.8
20221204134009 33 288 3.0 3.0 0.00 0.00 0.00 51 1019.8
20221204133508 33 304 3.0 7.0 0.00 0.00 0.00 51 1019.8
20221204133006 33 288 3.0 7.0 0.00 0.00 0.00 51 1019.8
20221204132504 32 303 5.0 7.0 0.00 0.00 0.00 52 1019.7
20221204132003 32 303 3.0 5.0 0.00 0.00 0.00 57 1019.6
20221204131503 32 285 6.0 7.0 0.00 0.00 0.00 56 1019.4
20221204131001 31 307 3.0 5.0 0.00 0.00 0.00 56 1019.6
20221204130501 31 307 3.0 5.0 0.00 0.00 0.00 60 1019.5
20221204130000 31 294 0.0 0.0 0.00 0.00 0.00 58 1019.5
20221204125459 32 294 0.0 2.0 0.00 0.00 0.00 59 1019.1
20221204124959 31 294 0.0 0.0 0.00 0.00 0.00 58 1019.2
20221204124458 32 294 0.0 0.0 0.00 0.00 0.00 57 1018.9
20221204123956 31 294 0.0 2.0 0.00 0.00 0.00 57 1019.1
20221204123454 31 294 0.0 0.0 0.00 0.00 0.00 57 1018.9
20221204122955 31 295 0.0 0.0 0.00 0.00 0.00 57 1018.9
20221204122452 31 295 0.0 0.0 0.00 0.00 0.00 58 1018.8
20221204121952 31 295 0.0 0.0 0.00 0.00 0.00 57 1018.8
20221204121450 31 295 0.0 0.0 0.00 0.00 0.00 60 1018.8
20221204120949 31 295 0.0 2.0 0.00 0.00 0.00 60 1018.7
20221204120448 31 295 0.0 0.0 0.00 0.00 0.00 58 1018.5
20221204115946 31 295 0.0 0.0 0.00 0.00 0.00 59 1018.5
20221204115446 32 295 0.0 0.0 0.00 0.00 0.00 60 1018.2
20221204114944 32 295 0.0 0.0 0.00 0.00 0.00 62 1018.4
20221204114443 33 295 0.0 2.0 0.00 0.00 0.00 59 1018.3
20221204113943 33 295 1.0 2.0 0.00 0.00 0.00 59 1018.5
20221204113443 33 295 2.0 3.0 0.00 0.00 0.00 58 1018.2
20221204112943 33 295 3.0 3.0 0.00 0.00 0.00 58 1018.2
20221204112442 33 298 2.0 5.0 0.00 0.00 0.00 58 1017.9
20221204111941 33 286 3.0 7.0 0.00 0.00 0.00 55 1017.9
20221204111439 34 282 4.0 9.0 0.00 0.00 0.00 55 1018.0
20221204110938 34 287 5.0 9.0 0.00 0.00 0.00 56 1017.6
20221204110437 34 276 7.0 10.0 0.00 0.00 0.00 53 1017.8
20221204105937 34 278 5.0 9.0 0.00 0.00 0.00 53 1017.6
20221204105435 35 288 5.0 7.0 0.00 0.00 0.00 55 1017.3
20221204104933 35 294 7.0 10.0 0.00 0.00 0.00 53 1017.3
20221204104429 35 316 5.0 9.0 0.00 0.00 0.00 54 1017.4
20221204103927 35 286 6.0 7.0 0.00 0.00 0.00 54 1017.2
20221204103426 35 279 4.0 12.0 0.00 0.00 0.00 56 1016.9
20221204102922 35 323 13.0 15.0 0.00 0.00 0.00 53 1016.7
20221204102421 35 263 11.0 17.0 0.00 0.00 0.00 52 1016.6
20221204101921 35 279 3.0 12.0 0.00 0.00 0.00 53 1016.4
20221204101418 35 283 12.0 15.0 0.00 0.00 0.00 53 1016.4
20221204100918 35 276 6.0 9.0 0.00 0.00 0.00 55 1016.4
20221204100418 35 277 6.0 14.0 0.00 0.00 0.00 55 1015.9
20221204095916 35 274 10.0 14.0 0.00 0.00 0.00 54 1015.9
20221204095414 35 267 8.0 21.0 0.00 0.00 0.00 53 1016.1
20221204094912 36 265 7.0 14.0 0.00 0.00 0.00 55 1015.8
20221204094412 36 276 9.0 17.0 0.00 0.00 0.00 54 1016.0
20221204093911 36 273 5.0 12.0 0.00 0.00 0.00 54 1015.8
20221204093411 36 284 10.0 15.0 0.00 0.00 0.00 53 1016.0
20221204092911 36 281 9.0 15.0 0.00 0.00 0.00 53 1015.8
20221204092410 36 279 6.0 12.0 0.00 0.00 0.00 55 1015.8
20221204091909 36 282 9.0 12.0 0.00 0.00 0.00 54 1015.7
20221204091409 36 280 5.0 12.0 0.00 0.00 0.00 53 1015.7
20221204090907 37 286 5.0 9.0 0.00 0.00 0.00 54 1015.5
20221204090406 36 279 7.0 10.0 0.00 0.00 0.00 53 1015.5
20221204085905 37 280 5.0 9.0 0.00 0.00 0.00 52 1015.4
20221204085405 37 274 7.0 14.0 0.00 0.00 0.00 52 1015.6
20221204084904 37 288 2.0 3.0 0.00 0.00 0.00 52 1015.4
20221204084404 37 287 0.0 5.0 0.00 0.00 0.00 51 1015.4
20221204083904 37 300 3.0 5.0 0.00 0.00 0.00 52 1015.2
20221204083402 37 283 4.0 7.0 0.00 0.00 0.00 52 1015.2
20221204082901 37 281 6.0 7.0 0.00 0.00 0.00 53 1015.0
20221204082359 37 295 3.0 7.0 0.00 0.00 0.00 50 1014.9
20221204081858 38 279 1.0 2.0 0.00 0.00 0.00 52 1015.1
20221204081358 37 301 3.0 5.0 0.00 0.00 0.00 52 1015.1
20221204080856 38 299 4.0 7.0 0.00 0.00 0.00 51 1015.0
20221204080354 38 283 6.0 15.0 0.00 0.00 0.00 50 1015.1
20221204075852 38 281 8.0 12.0 0.00 0.00 0.00 49 1015.1
20221204075351 38 287 7.0 15.0 0.00 0.00 0.00 50 1015.0
20221204074849 38 306 5.0 12.0 0.00 0.00 0.00 48 1014.9
20221204074349 38 288 5.0 7.0 0.00 0.00 0.00 49 1014.9
20221204073848 38 287 9.0 14.0 0.00 0.00 0.00 48 1014.8
20221204073347 38 294 6.0 15.0 0.00 0.00 0.00 48 1014.9
20221204072845 38 275 7.0 12.0 0.00 0.00 0.00 48 1014.5
20221204072344 38 285 10.0 19.0 0.00 0.00 0.00 49 1014.5
20221204071843 38 266 9.0 17.0 0.00 0.00 0.00 50 1014.4
20221204071342 38 271 7.0 10.0 0.00 0.00 0.00 51 1014.4
20221204070840 39 287 9.0 12.0 0.00 0.00 0.00 53 1014.5
20221204070338 39 291 8.0 10.0 0.00 0.00 0.00 53 1014.3
20221204065836 39 288 4.0 10.0 0.00 0.00 0.00 53 1014.1
20221204065336 39 293 9.0 14.0 0.00 0.00 0.00 52 1014.1
20221204064835 39 288 11.0 14.0 0.00 0.00 0.00 51 1013.8
20221204064334 39 279 9.0 14.0 0.00 0.00 0.00 51 1013.7
20221204063833 39 279 7.0 21.0 0.00 0.00 0.00 50 1013.6
20221204063333 39 294 9.0 17.0 0.00 0.00 0.00 51 1013.5
20221204062833 39 278 11.0 17.0 0.00 0.00 0.00 50 1013.4
20221204062331 39 271 11.0 14.0 0.00 0.00 0.00 52 1013.4
20221204061829 39 285 11.0 15.0 0.00 0.00 0.00 51 1013.5
20221204061327 39 277 13.0 17.0 0.00 0.00 0.00 51 1013.4
20221204060827 40 287 16.0 19.0 0.00 0.00 0.00 52 1013.4
20221204060327 40 276 11.0 15.0 0.00 0.00 0.00 52 1013.5
20221204055825 40 276 8.0 12.0 0.00 0.00 0.00 55 1013.1
20221204055324 40 305 12.0 15.0 0.00 0.00 0.00 52 1013.1
20221204054824 40 268 12.0 19.0 0.00 0.00 0.00 52 1013.2
20221204054323 40 271 12.0 14.0 0.00 0.00 0.00 52 1013.0
20221204053822 40 290 17.0 19.0 0.00 0.00 0.00 53 1013.4
20221204053321 40 276 9.0 15.0 0.00 0.00 0.00 55 1012.9
20221204052819 40 307 14.0 19.0 0.00 0.00 0.00 53 1013.2
20221204052319 40 282 7.0 12.0 0.00 0.00 0.00 55 1013.1
20221204051818 41 278 7.0 14.0 0.00 0.00 0.00 55 1012.8
20221204051317 40 277 7.0 12.0 0.00 0.00 0.00 57 1012.9
20221204050817 41 272 7.0 12.0 0.00 0.00 0.00 57 1012.9
20221204050316 41 292 11.0 15.0 0.00 0.00 0.00 55 1012.8
20221204045816 41 298 7.0 10.0 0.00 0.42 0.42 55 1012.8
20221204045314 41 274 11.0 15.0 0.00 0.42 0.42 54 1012.7
20221204044812 41 279 7.0 19.0 0.00 0.42 0.42 54 1012.7
20221204044310 41 288 7.0 12.0 0.00 0.42 0.42 53 1012.9
20221204043810 42 306 5.0 9.0 0.00 0.42 0.42 55 1012.8
20221204043309 41 281 8.0 14.0 0.00 0.42 0.42 54 1012.6
20221204042809 42 271 9.0 12.0 0.00 0.42 0.42 55 1012.6
20221204042308 42 270 7.0 12.0 0.00 0.42 0.42 59 1012.5
20221204041807 42 276 12.0 19.0 0.00 0.42 0.42 56 1012.5
20221204041306 42 279 7.0 14.0 0.00 0.42 0.42 58 1012.4
20221204040805 42 323 6.0 10.0 0.00 0.42 0.42 57 1012.6
20221204040305 42 291 4.0 10.0 0.00 0.42 0.42 59 1012.5
20221204035805 42 293 6.0 9.0 0.00 0.42 0.42 61 1012.2
20221204035305 42 308 12.0 15.0 0.00 0.42 0.42 58 1012.2
20221204034802 42 314 10.0 12.0 0.00 0.42 0.42 61 1012.0
20221204034300 42 293 8.0 10.0 0.00 0.42 0.42 63 1012.0
20221204033800 42 279 9.0 10.0 0.00 0.42 0.42 63 1011.9
20221204033256 42 275 10.0 14.0 0.00 0.42 0.42 65 1012.0
20221204032755 43 296 5.0 9.0 0.00 0.42 0.42 67 1011.8
20221204032254 43 274 7.0 9.0 0.00 0.42 0.42 68 1012.0
20221204031753 43 284 5.0 7.0 0.00 0.42 0.42 69 1011.7
20221204031252 43 280 8.0 10.0 0.00 0.42 0.42 68 1011.9
20221204030751 43 276 7.0 10.0 0.00 0.42 0.42 68 1011.7
20221204030249 43 274 7.0 10.0 0.00 0.42 0.42 66 1011.6
20221204025749 43 286 5.0 7.0 0.00 0.42 0.42 69 1011.7
20221204025248 43 274 5.0 9.0 0.00 0.42 0.42 67 1011.4
20221204024747 43 281 8.0 10.0 0.00 0.42 0.42 70 1011.6
20221204024247 43 274 7.0 9.0 0.00 0.42 0.42 68 1011.5
20221204023747 44 269 7.0 12.0 0.00 0.42 0.42 68 1011.5
20221204023246 44 272 9.0 19.0 0.00 0.42 0.42 67 1011.5
20221204022745 44 299 6.0 12.0 0.00 0.42 0.42 71 1011.3
20221204022243 44 247 10.0 12.0 0.00 0.42 0.42 68 1011.3
20221204021741 44 275 9.0 10.0 0.00 0.42 0.42 71 1011.4
20221204021239 44 264 7.0 9.0 0.00 0.42 0.42 75 1011.1
20221204020738 45 266 7.0 9.0 0.00 0.42 0.42 74 1010.9
20221204020236 46 275 9.0 17.0 0.00 0.42 0.42 72 1010.7
20221204015736 46 270 7.0 12.0 0.00 0.42 0.42 75 1010.5
20221204015236 46 278 6.0 9.0 0.00 0.42 0.42 80 1010.4
20221204014734 46 263 5.0 7.0 0.00 0.42 0.42 79 1010.2
20221204014232 46 268 7.0 15.0 0.00 0.42 0.42 78 1010.3
20221204013732 47 269 7.0 12.0 0.00 0.42 0.42 78 1010.0
20221204013228 48 275 8.0 12.0 0.00 0.42 0.42 80 1009.9
20221204012727 48 268 9.0 12.0 0.00 0.42 0.42 77 1009.6
20221204012225 48 266 10.0 14.0 0.00 0.42 0.42 78 1009.3
20221204011724 48 267 9.0 10.0 0.00 0.42 0.42 80 1009.3
20221204011222 48 256 8.0 10.0 0.00 0.42 0.42 81 1009.1
20221204010720 49 264 8.0 12.0 0.00 0.42 0.42 82 1008.8
20221204010219 49 257 9.0 12.0 0.00 0.42 0.42 80 1008.7
20221204005717 49 268 10.0 12.0 0.00 0.42 0.42 81 1008.7
20221204005216 49 261 7.0 9.0 0.00 0.42 0.42 83 1008.7
20221204004712 50 264 9.0 15.0 0.00 0.42 0.42 81 1008.6
20221204004210 50 261 7.0 14.0 0.00 0.42 0.42 82 1008.6
20221204003710 50 259 7.0 12.0 0.00 0.42 0.42 82 1008.4
20221204003209 50 268 7.0 10.0 0.00 0.42 0.42 82 1008.4
20221204002705 50 272 9.0 12.0 0.00 0.42 0.42 84 1008.5
20221204002205 50 256 7.0 10.0 0.00 0.42 0.42 86 1008.2
20221204001704 51 260 8.0 10.0 0.00 0.42 0.42 85 1008.2
20221204001203 51 263 5.0 10.0 0.00 0.42 0.42 88 1008.2
20221204000702 52 249 8.0 10.0 0.07 0.42 0.42 90 1008.3
20221204000201 52 261 6.0 9.0 0.07 0.42 0.42 90 1008.1
20221203235659 52 226 8.0 10.0 0.00 0.41 0.41 92 1008.0
20221203235159 52 264 9.0 14.0 0.00 0.41 0.41 94 1008.2
20221203234658 52 223 5.0 7.0 0.00 0.41 0.41 95 1008.0
20221203234157 52 212 3.0 5.0 0.00 0.41 0.41 95 1007.9
20221203233657 52 212 2.0 5.0 0.00 0.41 0.41 95 1007.8
20221203233155 52 208 5.0 5.0 0.00 0.41 0.41 95 1007.9
20221203232654 51 206 3.0 5.0 0.00 0.41 0.41 96 1007.8
20221203232153 51 209 0.0 3.0 0.00 0.41 0.41 96 1007.6
20221203231651 51 210 4.0 5.0 0.00 0.41 0.41 97 1007.9
20221203231151 51 211 1.0 5.0 0.00 0.41 0.41 97 1007.7
20221203230649 51 211 0.0 2.0 0.00 0.41 0.41 98 1008.0
20221203230148 51 211 0.0 0.0 0.00 0.41 0.41 98 1007.8
20221203225648 51 211 0.0 0.0 0.00 0.41 0.41 98 1008.0
20221203225145 51 211 0.0 2.0 0.00 0.41 0.41 98 1008.0
20221203224643 51 211 0.0 0.0 0.00 0.41 0.41 98 1008.1